Galt, MO

11:48 AM CDT on April 18, 2015 (GMT -0500)
Lamoni Municipal | | Change Station
CLOSE
Current Station
Airport
Location: Lamoni,
Elevation: 1132 ft
Nearby Weather Stations

Elev 1132 ft 40.63 °N, 93.90 °W | Updated 55 minutes ago

Mostly Cloudy
Mostly Cloudy
65 °F
Feels Like 65 °F
N
0
Wind Variable Wind from North

Today
High -- | Low -- °F
--% Chance of Precip.
Yesterday
High -- | Low -- °F
Precip. -- in
6:31 AM 7:55 PM
Waning Crescent, 0% visible
Pressure 29.91 in
Visibility 7.0 miles
Clouds Mostly Cloudy 6500 ft
Overcast 8500 ft
Dew Point 60 °F
Humidity 84%
Rainfall 0.11 in
Snow Depth Not available.
UV 2 out of 12
Pollen 2.90 out of 12
Air Quality Not available.
Flu Activity Local Activity
METAR KLWD 181553Z AUTO 00000KT 7SM BKN065 OVC085 18/16 A2992 RMK AO2 LTG DSNT NW RAE01 SLP128 P0001 T01830156

More Conditions Fewer Conditions

Pressure 29.91 in
Visibility 7.0 miles
Clouds Mostly Cloudy 6500 ft
Overcast 8500 ft
Dew Point 60 °F
Humidity 84%
Rainfall 0.11 in
Snow Depth Not available.
UV 2 out of 12
Pollen 2.90 out of 12
Air Quality Not available.
Flu Activity Local Activity
METAR KLWD 181553Z AUTO 00000KT 7SM BKN065 OVC085 18/16 A2992 RMK AO2 LTG DSNT NW RAE01 SLP128 P0001 T01830156

More Conditions Fewer Conditions

10-Day Weather Forecast

Almanac

Astronomy

Apr. 18, 2015 Rise Set
Actual Time
Civil Twilight
Nautical Twilight
Astronomical Twilight
Moon
Length of Visible Light
Length of Day
Tomorrow will be .
, % of the Moon is Illuminated

Today's Extremes

State Highs State Lows

Community

WunderPhotos

Upload Photos

1,814,457 photos uploaded!

WunderBlogs® & News

Nearby

Air Quality

  Air Quality AQ Index Pollutant
Not available.

Snow Depth

Station Depth Elevation

Earthquake Activity

City Distance Mag. Time & Date
Minimum magnitude displayed is 2.5.

Coastal Water Temperatures

Place Temperature

Stations

Nearby Weather Stations

Station Location Temp. Windchill Dew Point Humidity Wind Precip. Elev Updated Type